Geervliet — PCLI — position and weather

sailwx.info

Track history (hours):
 
Tides and Currents Weather Stations Pressure Air Temp Water Temp Dewpoint Dewpoint Depression Visibility Wind Speed Wind Dir Waves Ship Positions

Geervliet

Last reported at 2017-Sep-22 01:58 UTC. Time now 2017-Sep-22 04:50 UTC.
Position N 51°57' E 004°09'.

Length 86 m; draft 4.9 m.

Type: Cargo ship. MMSI: 246803000.

Date/timePositionNaut miles runAvg speedWind from/ knotsBaromVisibWave heightAir tempDewpointWater temp
2017-Sep-22 01:58N 51°57' E 004°09'0 0.0
2017-Sep-22 01:28N 51°57' E 004°09'0 0.0
2017-Sep-22 00:58N 51°57' E 004°09'0 0.0
2017-Sep-22 00:28N 51°57' E 004°09'0 0.0
2017-Sep-21 23:55N 51°57' E 004°09'0 0.0
2017-Sep-21 23:28N 51°57' E 004°09'0 0.0
2017-Sep-21 22:58N 51°57' E 004°09'0 0.0
2017-Sep-21 22:28N 51°57' E 004°09'0 0.0
2017-Sep-21 21:58N 51°57' E 004°09'0 0.0
2017-Sep-21 21:28N 51°57' E 004°09'0 0.0
2017-Sep-21 20:58N 51°57' E 004°09'0 0.0
2017-Sep-21 20:25N 51°57' E 004°09'0 0.0
2017-Sep-21 19:58N 51°57' E 004°09'0 0.0
2017-Sep-21 19:25N 51°57' E 004°09'0 0.0
2017-Sep-21 18:55N 51°57' E 004°09'0 0.0
2017-Sep-21 18:25N 51°57' E 004°09'0 0.0
2017-Sep-21 17:58N 51°57' E 004°09'0 0.0
2017-Sep-21 17:28N 51°57' E 004°09'0 0.0
2017-Sep-21 16:58N 51°57' E 004°09'0 0.0
2017-Sep-21 16:28N 51°57' E 004°09'0 0.0
2017-Sep-21 15:58N 51°57' E 004°09'0 0.0
2017-Sep-21 15:28N 51°57' E 004°09'0 0.0
2017-Sep-21 14:58N 51°57' E 004°09'0 0.0
2017-Sep-21 14:28N 51°57' E 004°09'0 0.0
2017-Sep-21 13:58N 51°57' E 004°09'0 0.0
2017-Sep-21 13:28N 51°57' E 004°09'0 0.0
2017-Sep-21 12:55N 51°57' E 004°09'0 0.0
2017-Sep-21 12:25N 51°57' E 004°09'0 0.0
2017-Sep-21 11:58N 51°57' E 004°09'0 0.0
2017-Sep-21 11:28N 51°57' E 004°09'0 0.0
2017-Sep-21 10:58N 51°57' E 004°09'0 0.0
2017-Sep-21 10:28N 51°57' E 004°09'0 0.0
2017-Sep-21 09:58N 51°57' E 004°09'0 0.0
2017-Sep-21 09:25N 51°57' E 004°09'0 0.0
2017-Sep-21 08:58N 51°57' E 004°09'0 0.0
2017-Sep-21 08:28N 51°57' E 004°09'0 0.0
2017-Sep-21 07:58N 51°57' E 004°09'0 0.0
2017-Sep-21 07:28N 51°57' E 004°09'0 0.0
2017-Sep-21 06:58N 51°57' E 004°09'0 0.0
2017-Sep-21 06:28N 51°57' E 004°09'0 0.0
2017-Sep-21 05:58N 51°57' E 004°09'0 0.0
2017-Sep-21 05:28N 51°57' E 004°09'0 0.0
2017-Sep-21 04:58N 51°57' E 004°09'0 0.0
2017-Sep-21 04:28N 51°57' E 004°09'0 0.0
2017-Sep-21 03:58N 51°57' E 004°09'0 0.0
2017-Sep-21 03:28N 51°57' E 004°09'0 0.0
2017-Sep-21 02:58N 51°57' E 004°09'0 0.0
2017-Sep-21 02:28N 51°57' E 004°09'0 0.0
2017-Sep-21 01:58N 51°57' E 004°09'0 0.0
2017-Sep-21 01:28N 51°57' E 004°09'0 0.0
2017-Sep-21 00:58N 51°57' E 004°09'0 0.0
2017-Sep-21 00:28N 51°57' E 004°09'0 0.0
2017-Sep-20 23:58N 51°57' E 004°09'0 0.0
2017-Sep-20 23:28N 51°57' E 004°09'0 0.0
2017-Sep-20 22:58N 51°57' E 004°09'0 0.0
2017-Sep-20 22:25N 51°57' E 004°09'0 0.0
2017-Sep-20 21:58N 51°57' E 004°09'0 0.0
2017-Sep-20 21:28N 51°57' E 004°09'0 0.0
2017-Sep-20 21:00N 51°57' E 004°09'3 5.2
2017-Sep-20 20:30N 51°59' E 004°06'4 8.6
2017-Sep-20 20:00N 51°60' E 003°59'5 9.1
2017-Sep-20 19:30N 52°01' E 003°52'4 8.8
2017-Sep-20 19:00N 52°04' E 003°47'510.6
2017-Sep-20 18:30N 52°09' E 003°46'510.4
2017-Sep-20 18:00N 52°15' E 003°47'5 9.9
2017-Sep-20 17:31N 52°19' E 003°48'5 9.5
2017-Sep-20 16:58N 52°24' E 003°50'17 8.9
2017-Sep-20 15:07N 52°41' E 003°55'122 9.9
2017-Sep-20 02:46N 54°31' E 005°24'310.2
2017-Sep-20 02:29N 54°33' E 005°27'510.1
2017-Sep-20 01:58N 54°38' E 005°31'5 9.9
2017-Sep-20 01:30N 54°42' E 005°36'5 9.8
2017-Sep-20 01:00N 54°46' E 005°40'238 9.4
2017-Sep-18 23:41N 57°49' E 010°14'2 9.7
2017-Sep-18 23:28N 57°49' E 010°18'4 9.7
2017-Sep-18 23:00N 57°49' E 010°26'5 9.8
2017-Sep-18 22:30N 57°48' E 010°35'510.4
2017-Sep-18 21:59N 57°48' E 010°45'510.5
2017-Sep-18 21:30N 57°45' E 010°54'510.8
2017-Sep-18 21:00N 57°41' E 011°01'610.9
2017-Sep-18 20:30N 57°38' E 011°09'510.6
2017-Sep-18 20:00N 57°35' E 011°16'510.7
2017-Sep-18 19:30N 57°31' E 011°23'510.6
2017-Sep-18 19:00N 57°27' E 011°30'510.4
2017-Sep-18 18:30N 57°23' E 011°37'5 9.9
2017-Sep-18 18:00N 57°19' E 011°43'610.2
2017-Sep-18 17:27N 57°15' E 011°50'4 0.3
2017-Sep-18 03:25N 57°13' E 011°54'511.3
2017-Sep-18 03:00N 57°16' E 011°48'510.6
2017-Sep-18 02:30N 57°19' E 011°40'510.5
2017-Sep-18 02:00N 57°23' E 011°34'510.1
2017-Sep-18 01:30N 57°27' E 011°27'510.1
2017-Sep-18 01:00N 57°30' E 011°20'510.5
2017-Sep-18 00:31N 57°33' E 011°13'510.2
2017-Sep-17 23:59N 57°37' E 011°06'510.0
2017-Sep-17 23:29N 57°40' E 010°58'5 9.7
2017-Sep-17 23:00N 57°44' E 010°52'5 9.7
2017-Sep-17 22:30N 57°46' E 010°45'5 9.9
2017-Sep-17 22:00N 57°47' E 010°36'510.6
2017-Sep-17 21:30N 57°47' E 010°26'610.7
2017-Sep-17 20:59N 57°46' E 010°15'711.0
2017-Sep-17 20:22N 57°45' E 010°03'30511.0
2017-Sep-16 16:36N 53°36' E 004°50'311.2
2017-Sep-16 16:21N 53°33' E 004°48'411.4
2017-Sep-16 16:01N 53°30' E 004°45'2612.3
2017-Sep-16 13:55N 53°06' E 004°27'613.3
2017-Sep-16 13:28N 53°01' E 004°22'712.5
2017-Sep-16 12:53N 52°55' E 004°16'9710.7
2017-Sep-16 03:50N 51°49' E 002°21'3 9.3
2017-Sep-16 03:29N 51°47' E 002°17'5 9.6
2017-Sep-16 03:00N 51°44' E 002°10'510.0
2017-Sep-16 02:30N 51°42' E 002°04'510.2
2017-Sep-16 02:00N 51°40' E 001°56'510.7
2017-Sep-16 01:30N 51°37' E 001°48'511.0
2017-Sep-16 01:01N 51°35' E 001°40'611.3
2017-Sep-16 00:31N 51°33' E 001°32'611.5
2017-Sep-16 00:01N 51°30' E 001°24'611.8
2017-Sep-15 23:30N 51°29' E 001°15'612.6
2017-Sep-15 23:01N 51°29' E 001°05'612.9
2017-Sep-15 22:31N 51°29' E 000°54'4 0.1
2017-Sep-14 01:54N 51°28' E 000°48'511.5
2017-Sep-14 01:30N 51°30' E 000°54'3 7.0
2017-Sep-14 01:00N 51°29' E 000°60'4 7.8
2017-Sep-14 00:30N 51°30' E 001°06'4 8.1
2017-Sep-14 00:00N 51°29' E 001°13'4 7.4
2017-Sep-13 23:30N 51°29' E 001°19'3 6.5
2017-Sep-13 23:00N 51°28' E 001°24'3 5.3
2017-Sep-13 22:30N 51°27' E 001°28'3 5.3
2017-Sep-13 22:00N 51°25' E 001°31'3 5.1
2017-Sep-13 21:30N 51°23' E 001°33'3 5.3
2017-Sep-13 21:00N 51°21' E 001°36'3 6.0
2017-Sep-13 20:30N 51°18' E 001°37'4 7.1
2017-Sep-13 20:00N 51°15' E 001°36'4 7.3
2017-Sep-13 19:30N 51°11' E 001°37'4 8.4
2017-Sep-13 19:00N 51°08' E 001°41'5 9.3
2017-Sep-13 18:30N 51°03' E 001°38'5 9.1
2017-Sep-13 18:00N 50°60' E 001°34'5 9.3
2017-Sep-13 17:30N 50°56' E 001°30'5 9.2
2017-Sep-13 17:00N 50°52' E 001°26'29 8.3
2017-Sep-13 13:31N 50°32' E 000°54'1 9.4
2017-Sep-13 13:23N 50°31' E 000°52'5 9.5
2017-Sep-13 12:51N 50°30' E 000°44'5 9.7
2017-Sep-13 12:19N 50°28' E 000°37'10 9.7
2017-Sep-13 11:20N 50°25' E 000°22'410.1
2017-Sep-13 10:59N 50°24' E 000°17'5 9.9
2017-Sep-13 10:30N 50°23' E 000°10'5 9.5
2017-Sep-13 10:00N 50°22' E 000°03'5 9.3
2017-Sep-13 09:30N 50°20' W 000°04'6 9.1
2017-Sep-13 08:51N 50°18' W 000°13'3 8.7
2017-Sep-13 08:30N 50°18' W 000°18'24 8.3
2017-Sep-13 05:33N 50°10' W 000°54'1 9.0
2017-Sep-13 05:26N 50°10' W 000°56'4 9.3
2017-Sep-13 05:00N 50°09' W 001°02'5 9.6
2017-Sep-13 04:30N 50°07' W 001°09'510.2
2017-Sep-13 04:00N 50°06' W 001°17'510.6
2017-Sep-13 03:30N 50°05' W 001°24'611.2
2017-Sep-13 03:00N 50°03' W 001°33'611.8
2017-Sep-13 02:30N 50°01' W 001°42'612.6
2017-Sep-13 02:01N 49°59' W 001°51'612.7
2017-Sep-13 01:31N 49°58' W 002°00'713.0
2017-Sep-13 01:01N 49°56' W 002°10'2212.8
2017-Sep-12 23:18N 49°49' W 002°42'412.3
2017-Sep-12 23:00N 49°48' W 002°48'1112.0
2017-Sep-12 22:07N 49°43' W 003°02'111.8
2017-Sep-12 22:00N 49°42' W 003°04'611.8
2017-Sep-12 21:29N 49°39' W 003°12'611.7
2017-Sep-12 21:00N 49°37' W 003°20'711.5
2017-Sep-12 20:24N 49°33' W 003°29'511.4
2017-Sep-12 19:58N 49°31' W 003°36'6310.6
2017-Sep-12 14:02N 48°59' W 004°59'1 9.8
2017-Sep-12 13:57N 48°59' W 005°00'4 9.7
2017-Sep-12 13:30N 48°57' W 005°06'5 9.5
2017-Sep-12 13:00N 48°54' W 005°12'5 9.7
2017-Sep-12 12:30N 48°52' W 005°19'510.1
2017-Sep-12 12:00N 48°50' W 005°26'  
Track history (hours):
 
Tides and Currents Weather Stations Pressure Air Temp Water Temp Dewpoint Dewpoint Depression Visibility Wind Speed Wind Dir Waves Ship Positions

Geervliet

Last reported at 2017-Sep-22 01:58 UTC. Time now 2017-Sep-22 04:50 UTC.
Position N 51°57' E 004°09'.

Length 86 m; draft 4.9 m.

Type: Cargo ship. MMSI: 246803000.

Date/timePositionNaut miles runAvg speedWind from/ knotsBaromVisibWave heightAir tempDewpointWater temp
2017-Sep-22 01:58N 51°57' E 004°09'0 0.0
2017-Sep-22 01:28N 51°57' E 004°09'0 0.0
2017-Sep-22 00:58N 51°57' E 004°09'0 0.0
2017-Sep-22 00:28N 51°57' E 004°09'0 0.0
2017-Sep-21 23:55N 51°57' E 004°09'0 0.0
2017-Sep-21 23:28N 51°57' E 004°09'0 0.0
2017-Sep-21 22:58N 51°57' E 004°09'0 0.0
2017-Sep-21 22:28N 51°57' E 004°09'0 0.0
2017-Sep-21 21:58N 51°57' E 004°09'0 0.0
2017-Sep-21 21:28N 51°57' E 004°09'0 0.0
2017-Sep-21 20:58N 51°57' E 004°09'0 0.0
2017-Sep-21 20:25N 51°57' E 004°09'0 0.0
2017-Sep-21 19:58N 51°57' E 004°09'0 0.0
2017-Sep-21 19:25N 51°57' E 004°09'0 0.0
2017-Sep-21 18:55N 51°57' E 004°09'0 0.0
2017-Sep-21 18:25N 51°57' E 004°09'0 0.0
2017-Sep-21 17:58N 51°57' E 004°09'0 0.0
2017-Sep-21 17:28N 51°57' E 004°09'0 0.0
2017-Sep-21 16:58N 51°57' E 004°09'0 0.0
2017-Sep-21 16:28N 51°57' E 004°09'0 0.0
2017-Sep-21 15:58N 51°57' E 004°09'0 0.0
2017-Sep-21 15:28N 51°57' E 004°09'0 0.0
2017-Sep-21 14:58N 51°57' E 004°09'0 0.0
2017-Sep-21 14:28N 51°57' E 004°09'0 0.0
2017-Sep-21 13:58N 51°57' E 004°09'0 0.0
2017-Sep-21 13:28N 51°57' E 004°09'0 0.0
2017-Sep-21 12:55N 51°57' E 004°09'0 0.0
2017-Sep-21 12:25N 51°57' E 004°09'0 0.0
2017-Sep-21 11:58N 51°57' E 004°09'0 0.0
2017-Sep-21 11:28N 51°57' E 004°09'0 0.0
2017-Sep-21 10:58N 51°57' E 004°09'0 0.0
2017-Sep-21 10:28N 51°57' E 004°09'0 0.0
2017-Sep-21 09:58N 51°57' E 004°09'0 0.0
2017-Sep-21 09:25N 51°57' E 004°09'0 0.0
2017-Sep-21 08:58N 51°57' E 004°09'0 0.0
2017-Sep-21 08:28N 51°57' E 004°09'0 0.0
2017-Sep-21 07:58N 51°57' E 004°09'0 0.0
2017-Sep-21 07:28N 51°57' E 004°09'0 0.0
2017-Sep-21 06:58N 51°57' E 004°09'0 0.0
2017-Sep-21 06:28N 51°57' E 004°09'0 0.0
2017-Sep-21 05:58N 51°57' E 004°09'0 0.0
2017-Sep-21 05:28N 51°57' E 004°09'0 0.0
2017-Sep-21 04:58N 51°57' E 004°09'0 0.0
2017-Sep-21 04:28N 51°57' E 004°09'0 0.0
2017-Sep-21 03:58N 51°57' E 004°09'0 0.0
2017-Sep-21 03:28N 51°57' E 004°09'0 0.0
2017-Sep-21 02:58N 51°57' E 004°09'0 0.0
2017-Sep-21 02:28N 51°57' E 004°09'0 0.0
2017-Sep-21 01:58N 51°57' E 004°09'0 0.0
2017-Sep-21 01:28N 51°57' E 004°09'0 0.0
2017-Sep-21 00:58N 51°57' E 004°09'0 0.0
2017-Sep-21 00:28N 51°57' E 004°09'0 0.0
2017-Sep-20 23:58N 51°57' E 004°09'0 0.0
2017-Sep-20 23:28N 51°57' E 004°09'0 0.0
2017-Sep-20 22:58N 51°57' E 004°09'0 0.0
2017-Sep-20 22:25N 51°57' E 004°09'0 0.0
2017-Sep-20 21:58N 51°57' E 004°09'0 0.0
2017-Sep-20 21:28N 51°57' E 004°09'0 0.0
2017-Sep-20 21:00N 51°57' E 004°09'3 5.2
2017-Sep-20 20:30N 51°59' E 004°06'4 8.6
2017-Sep-20 20:00N 51°60' E 003°59'5 9.1
2017-Sep-20 19:30N 52°01' E 003°52'4 8.8
2017-Sep-20 19:00N 52°04' E 003°47'510.6
2017-Sep-20 18:30N 52°09' E 003°46'510.4
2017-Sep-20 18:00N 52°15' E 003°47'5 9.9
2017-Sep-20 17:31N 52°19' E 003°48'5 9.5
2017-Sep-20 16:58N 52°24' E 003°50'17 8.9
2017-Sep-20 15:07N 52°41' E 003°55'122 9.9
2017-Sep-20 02:46N 54°31' E 005°24'310.2
2017-Sep-20 02:29N 54°33' E 005°27'510.1
2017-Sep-20 01:58N 54°38' E 005°31'5 9.9
2017-Sep-20 01:30N 54°42' E 005°36'5 9.8
2017-Sep-20 01:00N 54°46' E 005°40'238 9.4
2017-Sep-18 23:41N 57°49' E 010°14'2 9.7
2017-Sep-18 23:28N 57°49' E 010°18'4 9.7
2017-Sep-18 23:00N 57°49' E 010°26'5 9.8
2017-Sep-18 22:30N 57°48' E 010°35'510.4
2017-Sep-18 21:59N 57°48' E 010°45'510.5
2017-Sep-18 21:30N 57°45' E 010°54'510.8
2017-Sep-18 21:00N 57°41' E 011°01'610.9
2017-Sep-18 20:30N 57°38' E 011°09'510.6
2017-Sep-18 20:00N 57°35' E 011°16'510.7
2017-Sep-18 19:30N 57°31' E 011°23'510.6
2017-Sep-18 19:00N 57°27' E 011°30'510.4
2017-Sep-18 18:30N 57°23' E 011°37'5 9.9
2017-Sep-18 18:00N 57°19' E 011°43'610.2
2017-Sep-18 17:27N 57°15' E 011°50'4 0.3
2017-Sep-18 03:25N 57°13' E 011°54'511.3
2017-Sep-18 03:00N 57°16' E 011°48'510.6
2017-Sep-18 02:30N 57°19' E 011°40'510.5
2017-Sep-18 02:00N 57°23' E 011°34'510.1
2017-Sep-18 01:30N 57°27' E 011°27'510.1
2017-Sep-18 01:00N 57°30' E 011°20'510.5
2017-Sep-18 00:31N 57°33' E 011°13'510.2
2017-Sep-17 23:59N 57°37' E 011°06'510.0
2017-Sep-17 23:29N 57°40' E 010°58'5 9.7
2017-Sep-17 23:00N 57°44' E 010°52'5 9.7
2017-Sep-17 22:30N 57°46' E 010°45'5 9.9
2017-Sep-17 22:00N 57°47' E 010°36'510.6
2017-Sep-17 21:30N 57°47' E 010°26'610.7
2017-Sep-17 20:59N 57°46' E 010°15'711.0
2017-Sep-17 20:22N 57°45' E 010°03'30511.0
2017-Sep-16 16:36N 53°36' E 004°50'311.2
2017-Sep-16 16:21N 53°33' E 004°48'411.4
2017-Sep-16 16:01N 53°30' E 004°45'2612.3
2017-Sep-16 13:55N 53°06' E 004°27'613.3
2017-Sep-16 13:28N 53°01' E 004°22'712.5
2017-Sep-16 12:53N 52°55' E 004°16'9710.7
2017-Sep-16 03:50N 51°49' E 002°21'3 9.3
2017-Sep-16 03:29N 51°47' E 002°17'5 9.6
2017-Sep-16 03:00N 51°44' E 002°10'510.0
2017-Sep-16 02:30N 51°42' E 002°04'510.2
2017-Sep-16 02:00N 51°40' E 001°56'510.7
2017-Sep-16 01:30N 51°37' E 001°48'511.0
2017-Sep-16 01:01N 51°35' E 001°40'611.3
2017-Sep-16 00:31N 51°33' E 001°32'611.5
2017-Sep-16 00:01N 51°30' E 001°24'611.8
2017-Sep-15 23:30N 51°29' E 001°15'612.6
2017-Sep-15 23:01N 51°29' E 001°05'612.9
2017-Sep-15 22:31N 51°29' E 000°54'4 0.1
2017-Sep-14 01:54N 51°28' E 000°48'511.5
2017-Sep-14 01:30N 51°30' E 000°54'3 7.0
2017-Sep-14 01:00N 51°29' E 000°60'4 7.8
2017-Sep-14 00:30N 51°30' E 001°06'4 8.1
2017-Sep-14 00:00N 51°29' E 001°13'4 7.4
2017-Sep-13 23:30N 51°29' E 001°19'3 6.5
2017-Sep-13 23:00N 51°28' E 001°24'3 5.3
2017-Sep-13 22:30N 51°27' E 001°28'3 5.3
2017-Sep-13 22:00N 51°25' E 001°31'3 5.1
2017-Sep-13 21:30N 51°23' E 001°33'3 5.3
2017-Sep-13 21:00N 51°21' E 001°36'3 6.0
2017-Sep-13 20:30N 51°18' E 001°37'4 7.1
2017-Sep-13 20:00N 51°15' E 001°36'4 7.3
2017-Sep-13 19:30N 51°11' E 001°37'4 8.4
2017-Sep-13 19:00N 51°08' E 001°41'5 9.3
2017-Sep-13 18:30N 51°03' E 001°38'5 9.1
2017-Sep-13 18:00N 50°60' E 001°34'5 9.3
2017-Sep-13 17:30N 50°56' E 001°30'5 9.2
2017-Sep-13 17:00N 50°52' E 001°26'29 8.3
2017-Sep-13 13:31N 50°32' E 000°54'1 9.4
2017-Sep-13 13:23N 50°31' E 000°52'5 9.5
2017-Sep-13 12:51N 50°30' E 000°44'5 9.7
2017-Sep-13 12:19N 50°28' E 000°37'10 9.7
2017-Sep-13 11:20N 50°25' E 000°22'410.1
2017-Sep-13 10:59N 50°24' E 000°17'5 9.9
2017-Sep-13 10:30N 50°23' E 000°10'5 9.5
2017-Sep-13 10:00N 50°22' E 000°03'5 9.3
2017-Sep-13 09:30N 50°20' W 000°04'6 9.1
2017-Sep-13 08:51N 50°18' W 000°13'3 8.7
2017-Sep-13 08:30N 50°18' W 000°18'24 8.3
2017-Sep-13 05:33N 50°10' W 000°54'1 9.0
2017-Sep-13 05:26N 50°10' W 000°56'4 9.3
2017-Sep-13 05:00N 50°09' W 001°02'5 9.6
2017-Sep-13 04:30N 50°07' W 001°09'510.2
2017-Sep-13 04:00N 50°06' W 001°17'510.6
2017-Sep-13 03:30N 50°05' W 001°24'611.2
2017-Sep-13 03:00N 50°03' W 001°33'611.8
2017-Sep-13 02:30N 50°01' W 001°42'612.6
2017-Sep-13 02:01N 49°59' W 001°51'612.7
2017-Sep-13 01:31N 49°58' W 002°00'713.0
2017-Sep-13 01:01N 49°56' W 002°10'2212.8
2017-Sep-12 23:18N 49°49' W 002°42'412.3
2017-Sep-12 23:00N 49°48' W 002°48'1112.0
2017-Sep-12 22:07N 49°43' W 003°02'111.8
2017-Sep-12 22:00N 49°42' W 003°04'611.8
2017-Sep-12 21:29N 49°39' W 003°12'611.7
2017-Sep-12 21:00N 49°37' W 003°20'711.5
2017-Sep-12 20:24N 49°33' W 003°29'511.4
2017-Sep-12 19:58N 49°31' W 003°36'6310.6
2017-Sep-12 14:02N 48°59' W 004°59'1 9.8
2017-Sep-12 13:57N 48°59' W 005°00'4 9.7
2017-Sep-12 13:30N 48°57' W 005°06'5 9.5
2017-Sep-12 13:00N 48°54' W 005°12'5 9.7
2017-Sep-12 12:30N 48°52' W 005°19'510.1
2017-Sep-12 12:00N 48°50' W 005°26'  

Dump ship's entire track history